Abingdon, Virginia
Current Conditions -  °F | °C
As of 9:55 AM on Friday 19 Dec 2014 (Local Time) from KVJI Reporting Station
Overcast Overcast  
Wind Chill: 34°   Ceiling: 4800
Heat Index: 37°   Visibility: 10mi
Dew Point: 23°   Wind: 5mph
Humidity: 57%   Direction: 330°NNW
Pressure: 30.18"   Gusts: NA
Location:  36.71°N, 81.98°W
Report Text: KVJI 191455Z AUTO 33004KT 10SM OVC048 03/M05 A3018 RMK AO2 T00291048
Loading
Personal Weather Stations






























Interactive Weather Map New forecast layout! Learn more

10-Day Weather Forecast

Advertisements
Track Severe Weather on mobile